sensor_id;sensor_type;location;lat;lon;timestamp;P1;durP1;ratioP1;P2;durP2;ratioP2
64037;SDS011;54641;50.168;8.492;2023-03-14T00:02:23;1.50;;;0.90;;
64037;SDS011;54641;50.168;8.492;2023-03-14T00:04:55;1.20;;;0.80;;
64037;SDS011;54641;50.168;8.492;2023-03-14T00:07:25;5.80;;;1.20;;
64037;SDS011;54641;50.168;8.492;2023-03-14T00:09:56;4.50;;;1.30;;
64037;SDS011;54641;50.168;8.492;2023-03-14T00:12:26;2.70;;;1.00;;
64037;SDS011;54641;50.168;8.492;2023-03-14T00:14:56;5.70;;;1.20;;
64037;SDS011;54641;50.168;8.492;2023-03-14T00:17:27;2.00;;;0.90;;
64037;SDS011;54641;50.168;8.492;2023-03-14T00:19:58;3.50;;;1.10;;
64037;SDS011;54641;50.168;8.492;2023-03-14T00:22:35;2.50;;;1.20;;
64037;SDS011;54641;50.168;8.492;2023-03-14T00:25:06;1.10;;;0.80;;
64037;SDS011;54641;50.168;8.492;2023-03-14T00:27:39;2.30;;;0.80;;
64037;SDS011;54641;50.168;8.492;2023-03-14T00:30:10;3.00;;;0.90;;
64037;SDS011;54641;50.168;8.492;2023-03-14T00:32:40;3.00;;;0.90;;
64037;SDS011;54641;50.168;8.492;2023-03-14T00:35:11;2.80;;;1.20;;
64037;SDS011;54641;50.168;8.492;2023-03-14T00:37:41;2.70;;;0.80;;
64037;SDS011;54641;50.168;8.492;2023-03-14T00:40:12;2.90;;;0.90;;
64037;SDS011;54641;50.168;8.492;2023-03-14T00:42:43;3.20;;;1.00;;
64037;SDS011;54641;50.168;8.492;2023-03-14T00:45:13;5.40;;;1.60;;
64037;SDS011;54641;50.168;8.492;2023-03-14T00:47:44;3.50;;;1.30;;
64037;SDS011;54641;50.168;8.492;2023-03-14T00:50:14;4.80;;;1.50;;
64037;SDS011;54641;50.168;8.492;2023-03-14T00:52:46;2.70;;;1.30;;
64037;SDS011;54641;50.168;8.492;2023-03-14T00:55:17;3.30;;;1.30;;
64037;SDS011;54641;50.168;8.492;2023-03-14T00:57:47;7.80;;;1.50;;
64037;SDS011;54641;50.168;8.492;2023-03-14T01:00:17;3.40;;;1.20;;
64037;SDS011;54641;50.168;8.492;2023-03-14T01:02:48;6.40;;;1.20;;
64037;SDS011;54641;50.168;8.492;2023-03-14T01:05:19;3.20;;;1.10;;
64037;SDS011;54641;50.168;8.492;2023-03-14T01:07:49;5.60;;;1.80;;
64037;SDS011;54641;50.168;8.492;2023-03-14T01:10:20;7.80;;;2.10;;
64037;SDS011;54641;50.168;8.492;2023-03-14T01:12:51;5.90;;;1.10;;
64037;SDS011;54641;50.168;8.492;2023-03-14T01:15:21;5.20;;;1.30;;
64037;SDS011;54641;50.168;8.492;2023-03-14T01:17:52;4.40;;;1.10;;
64037;SDS011;54641;50.168;8.492;2023-03-14T01:20:23;5.50;;;1.50;;
64037;SDS011;54641;50.168;8.492;2023-03-14T01:22:54;5.10;;;1.50;;
64037;SDS011;54641;50.168;8.492;2023-03-14T01:25:24;8.10;;;1.30;;
64037;SDS011;54641;50.168;8.492;2023-03-14T01:27:55;9.60;;;2.70;;
64037;SDS011;54641;50.168;8.492;2023-03-14T01:30:25;5.90;;;1.30;;
64037;SDS011;54641;50.168;8.492;2023-03-14T01:32:55;6.70;;;1.60;;
64037;SDS011;54641;50.168;8.492;2023-03-14T01:35:26;5.10;;;1.10;;
64037;SDS011;54641;50.168;8.492;2023-03-14T01:37:57;3.90;;;1.20;;
64037;SDS011;54641;50.168;8.492;2023-03-14T01:40:29;4.00;;;1.10;;
64037;SDS011;54641;50.168;8.492;2023-03-14T01:43:05;4.90;;;1.50;;
64037;SDS011;54641;50.168;8.492;2023-03-14T01:48:50;3.20;;;1.00;;
64037;SDS011;54641;50.168;8.492;2023-03-14T01:51:24;6.90;;;1.30;;
64037;SDS011;54641;50.168;8.492;2023-03-14T01:53:58;4.10;;;1.10;;
64037;SDS011;54641;50.168;8.492;2023-03-14T01:56:31;5.70;;;1.20;;
64037;SDS011;54641;50.168;8.492;2023-03-14T01:59:02;8.70;;;1.80;;
64037;SDS011;54641;50.168;8.492;2023-03-14T02:01:35;5.40;;;1.40;;
64037;SDS011;54641;50.168;8.492;2023-03-14T02:04:06;7.20;;;1.30;;
64037;SDS011;54641;50.168;8.492;2023-03-14T02:06:41;5.70;;;1.90;;
64037;SDS011;54641;50.168;8.492;2023-03-14T02:09:16;6.60;;;1.60;;
64037;SDS011;54641;50.168;8.492;2023-03-14T02:11:47;8.30;;;1.90;;
64037;SDS011;54641;50.168;8.492;2023-03-14T02:14:35;4.30;;;1.10;;
64037;SDS011;54641;50.168;8.492;2023-03-14T02:17:28;5.40;;;1.90;;
64037;SDS011;54641;50.168;8.492;2023-03-14T02:20:17;6.20;;;1.20;;
64037;SDS011;54641;50.168;8.492;2023-03-14T02:22:57;6.80;;;1.20;;
64037;SDS011;54641;50.168;8.492;2023-03-14T02:25:31;6.50;;;1.50;;
64037;SDS011;54641;50.168;8.492;2023-03-14T02:28:06;5.50;;;1.90;;
64037;SDS011;54641;50.168;8.492;2023-03-14T02:30:38;7.20;;;1.10;;
64037;SDS011;54641;50.168;8.492;2023-03-14T02:33:09;3.30;;;1.00;;
64037;SDS011;54641;50.168;8.492;2023-03-14T02:35:45;6.40;;;1.20;;
64037;SDS011;54641;50.168;8.492;2023-03-14T02:38:19;4.00;;;1.30;;
64037;SDS011;54641;50.168;8.492;2023-03-14T02:40:51;4.90;;;1.80;;
64037;SDS011;54641;50.168;8.492;2023-03-14T02:43:22;4.70;;;1.20;;
64037;SDS011;54641;50.168;8.492;2023-03-14T02:45:57;3.50;;;1.50;;
64037;SDS011;54641;50.168;8.492;2023-03-14T02:48:30;7.80;;;1.30;;
64037;SDS011;54641;50.168;8.492;2023-03-14T02:51:02;4.30;;;1.40;;
64037;SDS011;54641;50.168;8.492;2023-03-14T02:53:34;4.30;;;1.30;;
64037;SDS011;54641;50.168;8.492;2023-03-14T02:56:09;5.50;;;2.20;;
64037;SDS011;54641;50.168;8.492;2023-03-14T02:58:40;6.90;;;1.60;;
64037;SDS011;54641;50.168;8.492;2023-03-14T03:01:19;3.60;;;1.30;;
64037;SDS011;54641;50.168;8.492;2023-03-14T03:03:49;4.20;;;1.40;;
64037;SDS011;54641;50.168;8.492;2023-03-14T03:06:20;2.70;;;1.00;;
64037;SDS011;54641;50.168;8.492;2023-03-14T03:08:50;5.40;;;1.50;;
64037;SDS011;54641;50.168;8.492;2023-03-14T03:11:21;9.50;;;1.70;;
64037;SDS011;54641;50.168;8.492;2023-03-14T03:13:51;5.90;;;1.70;;
64037;SDS011;54641;50.168;8.492;2023-03-14T03:16:22;6.90;;;1.40;;
64037;SDS011;54641;50.168;8.492;2023-03-14T03:18:52;4.90;;;1.00;;
64037;SDS011;54641;50.168;8.492;2023-03-14T03:21:22;2.60;;;1.20;;
64037;SDS011;54641;50.168;8.492;2023-03-14T03:23:53;3.70;;;1.30;;
64037;SDS011;54641;50.168;8.492;2023-03-14T03:26:23;5.80;;;1.80;;
64037;SDS011;54641;50.168;8.492;2023-03-14T03:28:54;4.10;;;1.30;;
64037;SDS011;54641;50.168;8.492;2023-03-14T03:31:24;7.60;;;1.40;;
64037;SDS011;54641;50.168;8.492;2023-03-14T03:33:55;5.90;;;1.50;;
64037;SDS011;54641;50.168;8.492;2023-03-14T03:36:27;6.00;;;1.90;;
64037;SDS011;54641;50.168;8.492;2023-03-14T03:38:59;5.60;;;1.50;;
64037;SDS011;54641;50.168;8.492;2023-03-14T03:41:29;4.80;;;1.40;;
64037;SDS011;54641;50.168;8.492;2023-03-14T03:44:01;4.30;;;1.50;;
64037;SDS011;54641;50.168;8.492;2023-03-14T03:46:31;5.60;;;1.20;;
64037;SDS011;54641;50.168;8.492;2023-03-14T03:49:01;6.80;;;2.40;;
64037;SDS011;54641;50.168;8.492;2023-03-14T03:51:32;7.60;;;1.80;;
64037;SDS011;54641;50.168;8.492;2023-03-14T03:54:02;8.40;;;1.80;;
64037;SDS011;54641;50.168;8.492;2023-03-14T03:56:33;7.50;;;2.30;;
64037;SDS011;54641;50.168;8.492;2023-03-14T03:59:03;6.70;;;2.30;;
64037;SDS011;54641;50.168;8.492;2023-03-14T04:01:34;5.90;;;1.90;;
64037;SDS011;54641;50.168;8.492;2023-03-14T04:04:05;4.90;;;1.40;;
64037;SDS011;54641;50.168;8.492;2023-03-14T04:06:36;7.00;;;1.70;;
64037;SDS011;54641;50.168;8.492;2023-03-14T04:09:07;7.30;;;1.80;;
64037;SDS011;54641;50.168;8.492;2023-03-14T04:11:42;7.30;;;2.10;;
64037;SDS011;54641;50.168;8.492;2023-03-14T04:14:38;5.00;;;1.30;;
64037;SDS011;54641;50.168;8.492;2023-03-14T04:17:17;6.60;;;1.60;;
64037;SDS011;54641;50.168;8.492;2023-03-14T04:19:49;6.20;;;2.30;;
64037;SDS011;54641;50.168;8.492;2023-03-14T04:22:24;5.80;;;1.70;;
64037;SDS011;54641;50.168;8.492;2023-03-14T04:24:54;7.70;;;1.30;;
64037;SDS011;54641;50.168;8.492;2023-03-14T04:27:25;5.90;;;1.70;;
64037;SDS011;54641;50.168;8.492;2023-03-14T04:29:56;6.70;;;1.60;;
64037;SDS011;54641;50.168;8.492;2023-03-14T04:32:44;6.40;;;1.80;;
64037;SDS011;54641;50.168;8.492;2023-03-14T04:35:15;4.90;;;1.20;;
64037;SDS011;54641;50.168;8.492;2023-03-14T04:37:46;6.40;;;1.60;;
64037;SDS011;54641;50.168;8.492;2023-03-14T04:40:17;5.90;;;1.40;;
64037;SDS011;54641;50.168;8.492;2023-03-14T04:45:20;5.70;;;1.10;;
64037;SDS011;54641;50.168;8.492;2023-03-14T04:47:50;5.90;;;2.00;;
64037;SDS011;54641;50.168;8.492;2023-03-14T04:50:21;4.10;;;1.10;;
64037;SDS011;54641;50.168;8.492;2023-03-14T04:52:51;4.80;;;1.50;;
64037;SDS011;54641;50.168;8.492;2023-03-14T04:55:22;6.60;;;1.20;;
64037;SDS011;54641;50.168;8.492;2023-03-14T04:57:54;2.60;;;1.00;;
64037;SDS011;54641;50.168;8.492;2023-03-14T05:00:25;5.30;;;1.20;;
64037;SDS011;54641;50.168;8.492;2023-03-14T05:03:08;4.10;;;1.20;;
64037;SDS011;54641;50.168;8.492;2023-03-14T05:05:57;3.80;;;1.00;;
64037;SDS011;54641;50.168;8.492;2023-03-14T05:08:38;2.10;;;0.80;;
64037;SDS011;54641;50.168;8.492;2023-03-14T05:11:25;4.80;;;1.30;;
64037;SDS011;54641;50.168;8.492;2023-03-14T05:14:09;2.30;;;0.70;;
64037;SDS011;54641;50.168;8.492;2023-03-14T05:16:54;4.50;;;0.80;;
64037;SDS011;54641;50.168;8.492;2023-03-14T05:19:47;5.40;;;1.00;;
64037;SDS011;54641;50.168;8.492;2023-03-14T05:22:46;5.30;;;1.00;;
64037;SDS011;54641;50.168;8.492;2023-03-14T05:25:31;3.90;;;0.90;;
64037;SDS011;54641;50.168;8.492;2023-03-14T05:28:19;6.50;;;1.50;;
64037;SDS011;54641;50.168;8.492;2023-03-14T05:30:56;5.90;;;1.20;;
64037;SDS011;54641;50.168;8.492;2023-03-14T05:33:46;4.20;;;1.20;;
64037;SDS011;54641;50.168;8.492;2023-03-14T05:36:33;4.80;;;0.90;;
64037;SDS011;54641;50.168;8.492;2023-03-14T05:39:28;3.80;;;1.00;;
64037;SDS011;54641;50.168;8.492;2023-03-14T05:42:24;1.60;;;0.70;;
64037;SDS011;54641;50.168;8.492;2023-03-14T05:45:06;2.40;;;0.60;;
64037;SDS011;54641;50.168;8.492;2023-03-14T05:47:55;2.60;;;1.00;;
64037;SDS011;54641;50.168;8.492;2023-03-14T05:50:48;5.80;;;1.40;;
64037;SDS011;54641;50.168;8.492;2023-03-14T05:53:36;3.90;;;1.30;;
64037;SDS011;54641;50.168;8.492;2023-03-14T05:56:29;3.20;;;0.50;;
64037;SDS011;54641;50.168;8.492;2023-03-14T05:59:25;2.50;;;0.70;;
64037;SDS011;54641;50.168;8.492;2023-03-14T06:02:05;3.60;;;0.90;;
64037;SDS011;54641;50.168;8.492;2023-03-14T06:04:42;2.90;;;0.90;;
64037;SDS011;54641;50.168;8.492;2023-03-14T06:07:12;3.00;;;0.80;;
64037;SDS011;54641;50.168;8.492;2023-03-14T06:09:43;4.10;;;0.60;;
64037;SDS011;54641;50.168;8.492;2023-03-14T06:12:15;3.40;;;0.90;;
64037;SDS011;54641;50.168;8.492;2023-03-14T06:14:46;2.90;;;0.90;;
64037;SDS011;54641;50.168;8.492;2023-03-14T06:17:16;4.30;;;0.70;;
64037;SDS011;54641;50.168;8.492;2023-03-14T06:19:51;2.30;;;0.90;;
64037;SDS011;54641;50.168;8.492;2023-03-14T06:22:21;2.30;;;0.80;;
64037;SDS011;54641;50.168;8.492;2023-03-14T06:24:53;3.40;;;0.90;;
64037;SDS011;54641;50.168;8.492;2023-03-14T06:27:24;3.20;;;1.20;;
64037;SDS011;54641;50.168;8.492;2023-03-14T06:29:55;2.80;;;0.90;;
64037;SDS011;54641;50.168;8.492;2023-03-14T06:32:25;4.50;;;1.20;;
64037;SDS011;54641;50.168;8.492;2023-03-14T06:34:58;2.20;;;0.70;;
64037;SDS011;54641;50.168;8.492;2023-03-14T06:37:31;3.50;;;0.80;;
64037;SDS011;54641;50.168;8.492;2023-03-14T06:40:03;4.50;;;1.00;;
64037;SDS011;54641;50.168;8.492;2023-03-14T06:42:54;2.60;;;0.90;;
64037;SDS011;54641;50.168;8.492;2023-03-14T06:45:25;3.00;;;0.80;;
64037;SDS011;54641;50.168;8.492;2023-03-14T06:47:56;2.00;;;0.80;;
64037;SDS011;54641;50.168;8.492;2023-03-14T06:50:35;3.60;;;1.50;;
64037;SDS011;54641;50.168;8.492;2023-03-14T06:53:06;2.90;;;1.00;;
64037;SDS011;54641;50.168;8.492;2023-03-14T06:55:37;4.10;;;0.90;;
64037;SDS011;54641;50.168;8.492;2023-03-14T06:58:08;3.30;;;0.70;;
64037;SDS011;54641;50.168;8.492;2023-03-14T07:00:42;2.60;;;0.70;;
64037;SDS011;54641;50.168;8.492;2023-03-14T07:03:15;5.60;;;1.20;;
64037;SDS011;54641;50.168;8.492;2023-03-14T07:05:48;3.30;;;0.90;;
64037;SDS011;54641;50.168;8.492;2023-03-14T07:08:19;3.00;;;1.00;;
64037;SDS011;54641;50.168;8.492;2023-03-14T07:10:49;3.60;;;0.90;;
64037;SDS011;54641;50.168;8.492;2023-03-14T07:13:20;3.90;;;1.60;;
64037;SDS011;54641;50.168;8.492;2023-03-14T07:18:32;3.40;;;1.10;;
64037;SDS011;54641;50.168;8.492;2023-03-14T07:21:04;4.50;;;1.00;;
64037;SDS011;54641;50.168;8.492;2023-03-14T07:23:36;4.50;;;0.90;;
64037;SDS011;54641;50.168;8.492;2023-03-14T07:26:07;3.70;;;1.30;;
64037;SDS011;54641;50.168;8.492;2023-03-14T07:28:39;4.10;;;1.40;;
64037;SDS011;54641;50.168;8.492;2023-03-14T07:31:12;2.90;;;1.40;;
64037;SDS011;54641;50.168;8.492;2023-03-14T07:33:43;3.60;;;1.10;;
64037;SDS011;54641;50.168;8.492;2023-03-14T07:36:14;3.00;;;1.00;;
64037;SDS011;54641;50.168;8.492;2023-03-14T07:38:45;3.60;;;0.90;;
64037;SDS011;54641;50.168;8.492;2023-03-14T07:41:15;2.90;;;1.60;;
64037;SDS011;54641;50.168;8.492;2023-03-14T07:44:06;4.60;;;1.50;;
64037;SDS011;54641;50.168;8.492;2023-03-14T07:46:36;4.30;;;1.30;;
64037;SDS011;54641;50.168;8.492;2023-03-14T07:49:07;2.60;;;0.90;;
64037;SDS011;54641;50.168;8.492;2023-03-14T07:51:37;1.80;;;1.10;;
64037;SDS011;54641;50.168;8.492;2023-03-14T07:54:08;3.90;;;1.60;;
64037;SDS011;54641;50.168;8.492;2023-03-14T07:56:38;4.60;;;1.40;;
64037;SDS011;54641;50.168;8.492;2023-03-14T07:59:08;2.90;;;1.00;;
64037;SDS011;54641;50.168;8.492;2023-03-14T08:01:39;3.80;;;1.00;;
64037;SDS011;54641;50.168;8.492;2023-03-14T08:04:10;3.50;;;1.10;;
64037;SDS011;54641;50.168;8.492;2023-03-14T08:06:42;8.80;;;7.10;;
64037;SDS011;54641;50.168;8.492;2023-03-14T08:09:12;3.00;;;1.50;;
64037;SDS011;54641;50.168;8.492;2023-03-14T08:11:43;4.10;;;1.40;;
64037;SDS011;54641;50.168;8.492;2023-03-14T08:14:13;2.40;;;1.20;;
64037;SDS011;54641;50.168;8.492;2023-03-14T08:16:43;3.00;;;1.20;;
64037;SDS011;54641;50.168;8.492;2023-03-14T08:19:14;4.00;;;1.80;;
64037;SDS011;54641;50.168;8.492;2023-03-14T08:21:45;3.40;;;1.30;;
64037;SDS011;54641;50.168;8.492;2023-03-14T08:24:15;2.40;;;1.30;;
64037;SDS011;54641;50.168;8.492;2023-03-14T08:26:45;2.40;;;1.30;;
64037;SDS011;54641;50.168;8.492;2023-03-14T08:29:15;3.10;;;1.60;;
64037;SDS011;54641;50.168;8.492;2023-03-14T08:31:46;3.70;;;1.40;;
64037;SDS011;54641;50.168;8.492;2023-03-14T08:34:17;3.10;;;1.30;;
64037;SDS011;54641;50.168;8.492;2023-03-14T08:36:47;2.10;;;1.20;;
64037;SDS011;54641;50.168;8.492;2023-03-14T08:39:18;3.20;;;1.30;;
64037;SDS011;54641;50.168;8.492;2023-03-14T08:41:48;3.90;;;1.70;;
64037;SDS011;54641;50.168;8.492;2023-03-14T08:44:19;4.10;;;1.50;;
64037;SDS011;54641;50.168;8.492;2023-03-14T08:46:50;8.90;;;1.80;;
64037;SDS011;54641;50.168;8.492;2023-03-14T08:49:21;2.00;;;1.20;;
64037;SDS011;54641;50.168;8.492;2023-03-14T08:51:51;3.30;;;1.80;;
64037;SDS011;54641;50.168;8.492;2023-03-14T08:54:21;4.70;;;1.80;;
64037;SDS011;54641;50.168;8.492;2023-03-14T08:56:52;2.60;;;1.30;;
64037;SDS011;54641;50.168;8.492;2023-03-14T08:59:23;5.20;;;1.50;;
64037;SDS011;54641;50.168;8.492;2023-03-14T09:01:53;4.40;;;1.90;;
64037;SDS011;54641;50.168;8.492;2023-03-14T09:04:24;4.40;;;2.40;;
64037;SDS011;54641;50.168;8.492;2023-03-14T09:06:54;4.20;;;1.70;;
64037;SDS011;54641;50.168;8.492;2023-03-14T09:09:25;3.50;;;2.30;;
64037;SDS011;54641;50.168;8.492;2023-03-14T09:11:56;4.60;;;1.70;;
64037;SDS011;54641;50.168;8.492;2023-03-14T09:14:29;4.40;;;2.00;;
64037;SDS011;54641;50.168;8.492;2023-03-14T09:17:00;4.30;;;2.10;;
64037;SDS011;54641;50.168;8.492;2023-03-14T09:19:31;6.40;;;2.30;;
64037;SDS011;54641;50.168;8.492;2023-03-14T09:22:01;6.80;;;3.10;;
64037;SDS011;54641;50.168;8.492;2023-03-14T09:24:32;3.40;;;1.80;;
64037;SDS011;54641;50.168;8.492;2023-03-14T09:27:02;2.50;;;1.50;;
64037;SDS011;54641;50.168;8.492;2023-03-14T09:29:33;5.30;;;2.20;;
64037;SDS011;54641;50.168;8.492;2023-03-14T09:32:03;4.70;;;2.10;;
64037;SDS011;54641;50.168;8.492;2023-03-14T09:34:34;2.20;;;1.70;;
64037;SDS011;54641;50.168;8.492;2023-03-14T09:37:05;5.30;;;1.80;;
64037;SDS011;54641;50.168;8.492;2023-03-14T09:39:35;4.80;;;2.70;;
64037;SDS011;54641;50.168;8.492;2023-03-14T09:42:06;3.80;;;2.90;;
64037;SDS011;54641;50.168;8.492;2023-03-14T09:44:42;4.60;;;2.10;;
64037;SDS011;54641;50.168;8.492;2023-03-14T09:47:19;4.50;;;2.00;;
64037;SDS011;54641;50.168;8.492;2023-03-14T09:49:49;4.50;;;1.90;;
64037;SDS011;54641;50.168;8.492;2023-03-14T09:52:21;4.70;;;2.70;;
64037;SDS011;54641;50.168;8.492;2023-03-14T09:54:53;2.90;;;2.10;;
64037;SDS011;54641;50.168;8.492;2023-03-14T09:57:27;3.80;;;2.30;;
64037;SDS011;54641;50.168;8.492;2023-03-14T09:59:58;5.90;;;1.80;;
64037;SDS011;54641;50.168;8.492;2023-03-14T10:02:37;2.30;;;1.50;;
64037;SDS011;54641;50.168;8.492;2023-03-14T10:05:13;5.10;;;2.20;;
64037;SDS011;54641;50.168;8.492;2023-03-14T10:07:45;3.90;;;2.20;;
64037;SDS011;54641;50.168;8.492;2023-03-14T10:10:22;3.40;;;2.10;;
64037;SDS011;54641;50.168;8.492;2023-03-14T10:12:56;3.10;;;2.00;;
64037;SDS011;54641;50.168;8.492;2023-03-14T10:15:29;4.00;;;2.00;;
64037;SDS011;54641;50.168;8.492;2023-03-14T10:18:01;4.50;;;2.30;;
64037;SDS011;54641;50.168;8.492;2023-03-14T10:20:39;3.50;;;2.70;;
64037;SDS011;54641;50.168;8.492;2023-03-14T10:23:22;4.50;;;2.30;;
64037;SDS011;54641;50.168;8.492;2023-03-14T10:26:03;3.60;;;2.00;;
64037;SDS011;54641;50.168;8.492;2023-03-14T10:28:37;3.40;;;2.10;;
64037;SDS011;54641;50.168;8.492;2023-03-14T10:31:09;3.90;;;2.60;;
64037;SDS011;54641;50.168;8.492;2023-03-14T10:33:40;3.70;;;2.80;;
64037;SDS011;54641;50.168;8.492;2023-03-14T10:36:19;4.40;;;2.80;;
64037;SDS011;54641;50.168;8.492;2023-03-14T10:38:51;3.90;;;2.40;;
64037;SDS011;54641;50.168;8.492;2023-03-14T10:41:30;3.50;;;2.40;;
64037;SDS011;54641;50.168;8.492;2023-03-14T10:44:00;4.90;;;2.10;;
64037;SDS011;54641;50.168;8.492;2023-03-14T10:46:32;5.80;;;2.50;;
64037;SDS011;54641;50.168;8.492;2023-03-14T10:49:25;2.40;;;1.90;;
64037;SDS011;54641;50.168;8.492;2023-03-14T10:51:59;3.80;;;2.20;;
64037;SDS011;54641;50.168;8.492;2023-03-14T10:54:31;4.50;;;2.00;;
64037;SDS011;54641;50.168;8.492;2023-03-14T10:57:03;2.70;;;2.00;;
64037;SDS011;54641;50.168;8.492;2023-03-14T10:59:35;3.80;;;2.80;;
64037;SDS011;54641;50.168;8.492;2023-03-14T11:02:10;3.20;;;2.20;;
64037;SDS011;54641;50.168;8.492;2023-03-14T11:04:54;4.50;;;2.60;;
64037;SDS011;54641;50.168;8.492;2023-03-14T11:07:33;2.40;;;1.80;;
64037;SDS011;54641;50.168;8.492;2023-03-14T11:10:10;2.90;;;2.10;;
64037;SDS011;54641;50.168;8.492;2023-03-14T11:12:51;3.70;;;2.60;;
64037;SDS011;54641;50.168;8.492;2023-03-14T11:15:30;3.70;;;2.50;;
64037;SDS011;54641;50.168;8.492;2023-03-14T11:20:58;7.00;;;2.70;;
64037;SDS011;54641;50.168;8.492;2023-03-14T11:23:31;2.50;;;2.10;;
64037;SDS011;54641;50.168;8.492;2023-03-14T11:26:09;3.10;;;2.40;;
64037;SDS011;54641;50.168;8.492;2023-03-14T11:28:47;6.90;;;1.80;;
64037;SDS011;54641;50.168;8.492;2023-03-14T11:31:19;4.40;;;1.70;;
64037;SDS011;54641;50.168;8.492;2023-03-14T11:33:53;2.50;;;1.90;;
64037;SDS011;54641;50.168;8.492;2023-03-14T11:36:29;3.00;;;1.90;;
64037;SDS011;54641;50.168;8.492;2023-03-14T11:39:02;3.20;;;1.80;;
64037;SDS011;54641;50.168;8.492;2023-03-14T11:41:33;3.10;;;2.10;;
64037;SDS011;54641;50.168;8.492;2023-03-14T11:44:09;2.30;;;1.50;;
64037;SDS011;54641;50.168;8.492;2023-03-14T11:46:43;3.10;;;1.80;;
64037;SDS011;54641;50.168;8.492;2023-03-14T11:49:17;2.70;;;1.70;;
64037;SDS011;54641;50.168;8.492;2023-03-14T11:51:55;2.40;;;1.70;;
64037;SDS011;54641;50.168;8.492;2023-03-14T11:54:28;1.50;;;1.40;;
64037;SDS011;54641;50.168;8.492;2023-03-14T11:57:04;2.90;;;1.50;;
64037;SDS011;54641;50.168;8.492;2023-03-14T11:59:41;1.00;;;0.50;;
64037;SDS011;54641;50.168;8.492;2023-03-14T12:02:16;0.70;;;0.40;;
64037;SDS011;54641;50.168;8.492;2023-03-14T12:04:55;0.60;;;0.30;;
64037;SDS011;54641;50.168;8.492;2023-03-14T12:07:53;1.10;;;0.40;;
64037;SDS011;54641;50.168;8.492;2023-03-14T12:10:42;3.50;;;0.40;;
64037;SDS011;54641;50.168;8.492;2023-03-14T12:13:14;1.00;;;0.30;;
64037;SDS011;54641;50.168;8.492;2023-03-14T12:15:47;0.30;;;0.30;;
64037;SDS011;54641;50.168;8.492;2023-03-14T12:18:26;0.60;;;0.40;;
64037;SDS011;54641;50.168;8.492;2023-03-14T12:20:59;0.50;;;0.30;;
64037;SDS011;54641;50.168;8.492;2023-03-14T12:23:34;1.00;;;0.40;;
64037;SDS011;54641;50.168;8.492;2023-03-14T12:26:16;4.10;;;1.50;;
64037;SDS011;54641;50.168;8.492;2023-03-14T12:28:50;1.10;;;0.60;;
64037;SDS011;54641;50.168;8.492;2023-03-14T12:31:36;1.00;;;0.50;;
64037;SDS011;54641;50.168;8.492;2023-03-14T12:34:27;1.00;;;0.50;;
64037;SDS011;54641;50.168;8.492;2023-03-14T12:39:47;0.90;;;0.40;;
64037;SDS011;54641;50.168;8.492;2023-03-14T12:42:37;0.50;;;0.40;;
64037;SDS011;54641;50.168;8.492;2023-03-14T12:45:21;0.80;;;0.80;;
64037;SDS011;54641;50.168;8.492;2023-03-14T12:47:54;0.50;;;0.50;;
64037;SDS011;54641;50.168;8.492;2023-03-14T12:53:15;1.30;;;0.60;;
64037;SDS011;54641;50.168;8.492;2023-03-14T12:55:56;1.00;;;0.90;;
64037;SDS011;54641;50.168;8.492;2023-03-14T12:58:30;0.80;;;0.80;;
64037;SDS011;54641;50.168;8.492;2023-03-14T13:01:05;1.00;;;0.80;;
64037;SDS011;54641;50.168;8.492;2023-03-14T13:03:42;3.00;;;1.50;;
64037;SDS011;54641;50.168;8.492;2023-03-14T13:06:15;1.40;;;1.10;;
64037;SDS011;54641;50.168;8.492;2023-03-14T13:09:35;1.90;;;1.20;;
64037;SDS011;54641;50.168;8.492;2023-03-14T13:12:22;1.30;;;1.10;;
64037;SDS011;54641;50.168;8.492;2023-03-14T13:14:57;1.80;;;1.30;;
64037;SDS011;54641;50.168;8.492;2023-03-14T13:17:32;2.00;;;1.00;;
64037;SDS011;54641;50.168;8.492;2023-03-14T13:20:09;1.40;;;1.00;;
64037;SDS011;54641;50.168;8.492;2023-03-14T13:22:46;1.40;;;1.00;;
64037;SDS011;54641;50.168;8.492;2023-03-14T13:25:18;1.30;;;1.20;;
64037;SDS011;54641;50.168;8.492;2023-03-14T13:27:51;2.00;;;1.30;;
64037;SDS011;54641;50.168;8.492;2023-03-14T13:30:24;0.90;;;0.90;;
64037;SDS011;54641;50.168;8.492;2023-03-14T13:32:57;2.10;;;1.10;;
64037;SDS011;54641;50.168;8.492;2023-03-14T13:35:28;3.40;;;0.80;;
64037;SDS011;54641;50.168;8.492;2023-03-14T13:38:14;0.90;;;0.90;;
64037;SDS011;54641;50.168;8.492;2023-03-14T13:40:48;0.90;;;0.60;;
64037;SDS011;54641;50.168;8.492;2023-03-14T13:43:23;0.40;;;0.40;;
64037;SDS011;54641;50.168;8.492;2023-03-14T13:46:02;0.60;;;0.60;;
64037;SDS011;54641;50.168;8.492;2023-03-14T13:48:38;1.00;;;0.60;;
64037;SDS011;54641;50.168;8.492;2023-03-14T13:51:12;1.40;;;0.70;;
64037;SDS011;54641;50.168;8.492;2023-03-14T13:53:45;1.90;;;0.90;;
64037;SDS011;54641;50.168;8.492;2023-03-14T13:56:17;0.70;;;0.50;;
64037;SDS011;54641;50.168;8.492;2023-03-14T13:58:49;0.40;;;0.40;;
64037;SDS011;54641;50.168;8.492;2023-03-14T14:01:20;0.60;;;0.30;;
64037;SDS011;54641;50.168;8.492;2023-03-14T14:03:53;1.80;;;0.50;;
64037;SDS011;54641;50.168;8.492;2023-03-14T14:06:27;0.70;;;0.30;;
64037;SDS011;54641;50.168;8.492;2023-03-14T14:09:00;0.40;;;0.40;;
64037;SDS011;54641;50.168;8.492;2023-03-14T14:11:42;0.70;;;0.50;;
64037;SDS011;54641;50.168;8.492;2023-03-14T14:14:32;0.80;;;0.50;;
64037;SDS011;54641;50.168;8.492;2023-03-14T14:17:07;0.40;;;0.40;;
64037;SDS011;54641;50.168;8.492;2023-03-14T14:19:39;0.80;;;0.50;;
64037;SDS011;54641;50.168;8.492;2023-03-14T14:22:10;0.60;;;0.40;;
64037;SDS011;54641;50.168;8.492;2023-03-14T14:24:41;0.30;;;0.30;;
64037;SDS011;54641;50.168;8.492;2023-03-14T14:27:13;0.90;;;0.50;;
64037;SDS011;54641;50.168;8.492;2023-03-14T14:29:45;0.80;;;0.50;;
64037;SDS011;54641;50.168;8.492;2023-03-14T14:32:26;2.70;;;0.40;;
64037;SDS011;54641;50.168;8.492;2023-03-14T14:35:05;1.00;;;0.40;;
64037;SDS011;54641;50.168;8.492;2023-03-14T14:37:41;0.40;;;0.40;;
64037;SDS011;54641;50.168;8.492;2023-03-14T14:40:16;0.60;;;0.50;;
64037;SDS011;54641;50.168;8.492;2023-03-14T14:42:48;0.40;;;0.40;;
64037;SDS011;54641;50.168;8.492;2023-03-14T14:45:19;0.40;;;0.40;;
64037;SDS011;54641;50.168;8.492;2023-03-14T14:47:51;0.60;;;0.40;;
64037;SDS011;54641;50.168;8.492;2023-03-14T14:50:28;1.80;;;0.70;;
64037;SDS011;54641;50.168;8.492;2023-03-14T14:53:00;2.00;;;0.80;;
64037;SDS011;54641;50.168;8.492;2023-03-14T14:55:49;1.10;;;0.50;;
64037;SDS011;54641;50.168;8.492;2023-03-14T14:58:22;2.50;;;0.70;;
64037;SDS011;54641;50.168;8.492;2023-03-14T15:00:56;1.80;;;0.70;;
64037;SDS011;54641;50.168;8.492;2023-03-14T15:05:58;1.60;;;0.80;;
64037;SDS011;54641;50.168;8.492;2023-03-14T15:08:29;1.40;;;0.80;;
64037;SDS011;54641;50.168;8.492;2023-03-14T15:11:00;1.50;;;1.00;;
64037;SDS011;54641;50.168;8.492;2023-03-14T15:13:30;2.20;;;0.90;;
64037;SDS011;54641;50.168;8.492;2023-03-14T15:16:01;2.30;;;1.20;;
64037;SDS011;54641;50.168;8.492;2023-03-14T15:18:33;1.90;;;0.70;;
64037;SDS011;54641;50.168;8.492;2023-03-14T15:21:04;0.50;;;0.50;;
64037;SDS011;54641;50.168;8.492;2023-03-14T15:23:35;0.70;;;0.60;;
64037;SDS011;54641;50.168;8.492;2023-03-14T15:26:08;1.30;;;0.60;;
64037;SDS011;54641;50.168;8.492;2023-03-14T15:28:41;0.90;;;0.50;;
64037;SDS011;54641;50.168;8.492;2023-03-14T15:31:12;0.60;;;0.50;;
64037;SDS011;54641;50.168;8.492;2023-03-14T15:33:45;6.50;;;2.00;;
64037;SDS011;54641;50.168;8.492;2023-03-14T15:36:19;2.00;;;0.60;;
64037;SDS011;54641;50.168;8.492;2023-03-14T15:38:52;1.30;;;0.50;;
64037;SDS011;54641;50.168;8.492;2023-03-14T15:41:23;1.50;;;0.50;;
64037;SDS011;54641;50.168;8.492;2023-03-14T15:43:54;2.10;;;0.60;;
64037;SDS011;54641;50.168;8.492;2023-03-14T15:46:24;0.40;;;0.40;;
64037;SDS011;54641;50.168;8.492;2023-03-14T15:48:58;1.40;;;0.50;;
64037;SDS011;54641;50.168;8.492;2023-03-14T15:51:28;1.10;;;0.40;;